createdAt,value
2018-08-19T00:01:15.074Z,20.60
2018-08-19T00:03:43.722Z,20.60
2018-08-19T00:06:12.392Z,20.50
2018-08-19T00:08:41.073Z,20.40
2018-08-19T00:11:10.176Z,20.30
2018-08-19T00:13:39.381Z,20.30
2018-08-19T00:16:09.311Z,20.10
2018-08-19T00:18:38.222Z,20.10
2018-08-19T00:21:08.565Z,20.00
2018-08-19T00:23:42.637Z,20.00
2018-08-19T00:26:11.526Z,19.90
2018-08-19T00:28:40.181Z,19.90
2018-08-19T00:31:08.922Z,19.90
2018-08-19T00:33:37.635Z,19.80
2018-08-19T01:44:44.697Z,18.30
2018-08-19T01:47:13.368Z,18.20
2018-08-19T01:49:42.020Z,18.10
2018-08-19T01:52:10.673Z,18.10
2018-08-19T01:54:39.312Z,18.10
2018-08-19T01:57:07.998Z,18.00
2018-08-19T01:59:36.657Z,18.00
2018-08-19T02:02:06.417Z,17.90
2018-08-19T02:04:56.320Z,17.90
2018-08-19T02:07:25.746Z,17.80
2018-08-19T02:10:05.590Z,17.80
2018-08-19T02:12:38.935Z,17.70
2018-08-19T02:15:08.793Z,17.60
2018-08-19T02:17:43.179Z,17.60
2018-08-19T02:20:11.846Z,17.60
2018-08-19T02:22:44.434Z,17.60
2018-08-19T02:25:13.093Z,17.60
2018-08-19T02:27:41.756Z,17.60
2018-08-19T02:30:10.435Z,17.70
2018-08-19T02:32:39.099Z,17.70
2018-08-19T02:35:07.735Z,17.70
2018-08-19T02:37:36.366Z,17.80
2018-08-19T02:40:05.070Z,17.80
2018-08-19T02:42:34.216Z,17.80
2018-08-19T02:45:07.776Z,17.90
2018-08-19T02:47:36.921Z,17.80
2018-08-19T02:50:05.909Z,17.70
2018-08-19T02:52:37.100Z,17.70
2018-08-19T02:55:07.228Z,17.70
2018-08-19T02:57:38.241Z,17.60
2018-08-19T03:00:07.686Z,17.60
2018-08-19T03:02:38.377Z,17.60
2018-08-19T03:05:08.567Z,17.50
2018-08-19T03:07:37.198Z,17.50
2018-08-19T03:10:09.166Z,17.40
2018-08-19T03:12:37.933Z,17.40
2018-08-19T03:15:08.323Z,17.40
2018-08-19T03:17:37.010Z,17.30
2018-08-19T03:20:08.194Z,17.30
2018-08-19T03:22:36.876Z,17.30
2018-08-19T03:25:07.003Z,17.20
2018-08-19T03:27:35.650Z,17.20
2018-08-19T03:30:07.662Z,17.30
2018-08-19T03:32:36.366Z,17.30
2018-08-19T03:35:13.122Z,17.30
2018-08-19T03:37:41.814Z,17.30
2018-08-19T03:40:10.485Z,17.20
2018-08-19T03:42:39.091Z,17.20
2018-08-19T03:48:04.133Z,17.10
2018-08-19T03:50:35.969Z,17.10
2018-08-19T03:53:04.853Z,17.10
2018-08-19T03:55:34.221Z,17.10
2018-08-19T03:58:05.301Z,17.00
2018-08-19T04:00:35.190Z,16.90
2018-08-19T04:03:18.558Z,16.90
2018-08-19T04:05:53.912Z,16.90
2018-08-19T04:08:26.184Z,16.80
2018-08-19T04:10:54.800Z,16.80
2018-08-19T04:13:36.660Z,16.80
2018-08-19T04:16:06.470Z,16.70
2018-08-19T04:18:44.842Z,16.70
2018-08-19T04:21:14.667Z,16.60
2018-08-19T04:23:45.065Z,16.60
2018-08-19T04:26:13.694Z,16.60
2018-08-19T04:28:43.403Z,16.60
2018-08-19T04:31:17.236Z,16.50
2018-08-19T04:33:47.233Z,16.60
2018-08-19T04:36:18.037Z,16.60
2018-08-19T04:38:46.664Z,16.60
2018-08-19T04:41:15.712Z,16.60
2018-08-19T04:43:44.857Z,16.60
2018-08-19T04:46:13.532Z,16.70
2018-08-19T04:48:43.862Z,16.70
2018-08-19T04:51:12.457Z,16.80
2018-08-19T04:53:41.141Z,16.80
2018-08-19T04:56:09.804Z,16.80
2018-08-19T04:58:38.626Z,16.80
2018-08-19T05:01:07.332Z,16.80
2018-08-19T05:03:35.929Z,16.80
2018-08-19T05:06:04.638Z,16.80
2018-08-19T05:08:33.304Z,16.80
2018-08-19T05:11:02.068Z,16.80
2018-08-19T05:13:30.697Z,16.90
2018-08-19T05:15:59.456Z,16.90
2018-08-19T05:18:28.093Z,17.00
2018-08-19T05:21:01.891Z,17.10
2018-08-19T05:23:30.556Z,17.20
2018-08-19T05:25:59.202Z,17.30
2018-08-19T05:28:27.935Z,17.30
2018-08-19T05:30:56.583Z,17.40
2018-08-19T05:33:25.206Z,17.50
2018-08-19T05:35:53.893Z,17.50
2018-08-19T05:38:22.509Z,17.60
2018-08-19T05:40:56.639Z,17.60
2018-08-19T05:43:25.286Z,17.70
2018-08-19T05:46:00.101Z,17.80
2018-08-19T05:48:28.750Z,17.90
2018-08-19T05:50:57.749Z,17.90
2018-08-19T05:53:26.578Z,18.10
2018-08-19T05:55:55.289Z,18.20
2018-08-19T05:58:23.976Z,18.40
2018-08-19T06:01:02.341Z,18.40
2018-08-19T06:03:31.345Z,18.50
2018-08-19T06:06:00.014Z,18.50
2018-08-19T06:08:28.735Z,18.60
2018-08-19T06:10:57.432Z,18.70
2018-08-19T06:13:28.169Z,18.80
2018-08-19T06:15:56.991Z,18.90
2018-08-19T06:18:25.582Z,19.00
2018-08-19T06:20:54.210Z,19.10
2018-08-19T06:23:22.937Z,19.30
2018-08-19T06:25:51.568Z,19.50
2018-08-19T06:28:20.221Z,19.60
2018-08-19T06:30:48.916Z,19.70
2018-08-19T06:33:17.529Z,19.80
2018-08-19T06:35:46.145Z,19.80
2018-08-19T06:38:14.885Z,20.00
2018-08-19T06:40:44.575Z,20.10
2018-08-19T06:43:13.240Z,20.10
2018-08-19T06:45:41.876Z,20.20
2018-08-19T06:48:10.521Z,20.30
2018-08-19T06:50:39.334Z,20.50
2018-08-19T06:53:10.511Z,20.60
2018-08-19T06:55:39.246Z,20.60
2018-08-19T06:58:07.970Z,20.70
2018-08-19T07:00:36.709Z,20.80
2018-08-19T07:03:06.134Z,21.00
2018-08-19T07:05:35.135Z,21.00
2018-08-19T07:08:04.068Z,21.10
2018-08-19T07:10:40.575Z,21.20
2018-08-19T07:13:11.320Z,21.20
2018-08-19T07:15:41.201Z,21.30
2018-08-19T07:18:11.635Z,21.50
2018-08-19T07:20:41.295Z,21.70
2018-08-19T07:23:10.561Z,21.70
2018-08-19T07:25:41.035Z,21.80
2018-08-19T07:28:10.478Z,21.80
2018-08-19T07:30:39.428Z,22.10
2018-08-19T07:33:08.420Z,22.10
2018-08-19T07:35:37.074Z,22.10
2018-08-19T07:38:05.766Z,22.20
2018-08-19T07:40:34.397Z,22.40
2018-08-19T07:43:05.171Z,22.40
2018-08-19T07:45:33.798Z,22.50
2018-08-19T07:48:02.483Z,22.60
2018-08-19T07:50:31.130Z,22.60
2018-08-19T07:52:59.796Z,22.80
2018-08-19T07:55:28.574Z,22.90
2018-08-19T07:57:57.221Z,23.00
2018-08-19T08:00:31.297Z,23.00
2018-08-19T08:02:59.963Z,23.20
2018-08-19T08:05:32.905Z,23.40
2018-08-19T08:08:01.873Z,23.50
2018-08-19T08:10:30.499Z,23.70
2018-08-19T08:13:03.387Z,23.80
2018-08-19T08:15:32.841Z,23.80
2018-08-19T08:18:01.466Z,24.00
2018-08-19T08:20:30.109Z,24.10
2018-08-19T08:22:59.794Z,24.20
2018-08-19T08:25:28.461Z,24.20
2018-08-19T08:27:57.097Z,24.40
2018-08-19T08:30:25.737Z,24.50
2018-08-19T08:32:54.431Z,24.60
2018-08-19T08:35:23.120Z,24.60
2018-08-19T08:37:51.782Z,24.70
2018-08-19T08:40:20.437Z,24.80
2018-08-19T08:42:50.728Z,24.90
2018-08-19T08:45:24.974Z,24.90
2018-08-19T08:47:53.649Z,25.00
2018-08-19T08:50:22.403Z,25.00
2018-08-19T08:52:51.030Z,25.00
2018-08-19T08:55:19.725Z,25.20
2018-08-19T08:57:48.365Z,25.30
2018-08-19T09:00:17.218Z,25.50
2018-08-19T09:02:45.850Z,25.70
2018-08-19T09:05:14.513Z,25.70
2018-08-19T09:07:43.161Z,25.80
2018-08-19T09:10:13.813Z,26.00
2018-08-19T09:12:52.586Z,26.00
2018-08-19T09:15:21.505Z,25.90
2018-08-19T09:17:50.180Z,25.90
2018-08-19T09:20:18.862Z,26.00
2018-08-19T09:25:37.798Z,26.10
2018-08-19T09:28:06.454Z,26.40
2018-08-19T09:30:37.080Z,26.50
2018-08-19T09:33:06.110Z,26.70
2018-08-19T09:35:35.864Z,26.70
2018-08-19T09:38:11.814Z,26.70
2018-08-19T09:40:40.884Z,26.90
2018-08-19T09:43:09.933Z,27.00
2018-08-19T09:45:59.916Z,27.10
2018-08-19T09:48:28.562Z,27.10
2018-08-19T09:51:01.973Z,27.20
2018-08-19T09:53:30.718Z,27.20
2018-08-19T09:56:04.595Z,27.30
2018-08-19T09:58:33.336Z,27.40
2018-08-19T10:01:07.677Z,27.50
2018-08-19T10:03:36.288Z,27.40
2018-08-19T10:06:04.930Z,27.60
2018-08-19T10:08:33.593Z,27.70
2018-08-19T10:11:02.309Z,27.90
2018-08-19T10:13:31.045Z,27.80
2018-08-19T10:15:59.730Z,27.70
2018-08-19T10:18:28.362Z,27.90
2018-08-19T10:20:58.854Z,27.80
2018-08-19T10:23:27.461Z,28.00
2018-08-19T10:25:56.105Z,28.00
2018-08-19T10:28:24.788Z,28.00
2018-08-19T10:30:57.926Z,28.10
2018-08-19T10:33:26.562Z,28.20
2018-08-19T10:35:58.445Z,28.10
2018-08-19T10:38:27.079Z,28.20
2018-08-19T10:41:01.551Z,28.40
2018-08-19T10:43:30.198Z,28.70
2018-08-19T10:45:58.950Z,28.90
2018-08-19T10:48:27.603Z,28.60
2018-08-19T10:50:56.287Z,28.80
2018-08-19T10:53:27.610Z,29.00
2018-08-19T10:56:00.306Z,29.20
2018-08-19T10:58:29.118Z,29.30
2018-08-19T11:00:57.809Z,29.40
2018-08-19T11:03:26.493Z,29.30
2018-08-19T11:05:56.398Z,29.10
2018-08-19T11:08:25.102Z,29.00
2018-08-19T11:10:53.752Z,29.10
2018-08-19T11:13:23.928Z,29.10
2018-08-19T11:15:55.548Z,29.10
2018-08-19T11:18:32.997Z,29.30
2018-08-19T11:21:06.122Z,29.70
2018-08-19T11:23:37.793Z,29.50
2018-08-19T11:26:07.130Z,29.30
2018-08-19T11:28:39.957Z,29.40
2018-08-19T11:31:19.292Z,29.50
2018-08-19T11:33:48.115Z,29.50
2018-08-19T11:36:16.894Z,29.30
2018-08-19T11:38:52.422Z,29.30
2018-08-19T11:41:21.366Z,29.40
2018-08-19T11:43:50.578Z,29.70
2018-08-19T11:46:19.358Z,29.90
2018-08-19T11:48:55.327Z,29.90
2018-08-19T11:51:37.862Z,30.30
2018-08-19T11:54:06.137Z,30.70
2018-08-19T11:56:34.794Z,30.90
2018-08-19T11:59:04.366Z,31.10
2018-08-19T12:01:33.117Z,31.30
2018-08-19T12:04:06.358Z,31.60
2018-08-19T12:06:35.558Z,31.60
2018-08-19T12:09:06.672Z,31.90
2018-08-19T12:11:37.534Z,32.30
2018-08-19T12:14:12.071Z,32.10
2018-08-19T12:16:47.160Z,31.30
2018-08-19T12:19:20.892Z,30.50
2018-08-19T12:21:58.949Z,30.20
2018-08-19T12:24:30.196Z,30.10
2018-08-19T12:27:00.541Z,30.50
2018-08-19T12:29:30.402Z,31.00
2018-08-19T12:32:11.771Z,31.60
2018-08-19T12:34:44.621Z,32.10
2018-08-19T12:37:14.466Z,32.60
2018-08-19T12:39:43.103Z,33.10
2018-08-19T12:42:11.942Z,33.00
2018-08-19T12:44:40.860Z,32.60
2018-08-19T12:47:16.968Z,32.40
2018-08-19T12:49:47.290Z,32.40
2018-08-19T12:52:19.718Z,31.90
2018-08-19T12:54:53.992Z,32.20
2018-08-19T12:57:23.005Z,32.40
2018-08-19T12:59:51.717Z,32.90
2018-08-19T13:02:25.682Z,33.40
2018-08-19T13:04:54.317Z,33.60
2018-08-19T13:07:22.986Z,33.90
2018-08-19T13:09:51.814Z,34.20
2018-08-19T13:12:20.457Z,34.40
2018-08-19T13:14:49.133Z,34.70
2018-08-19T13:17:17.897Z,34.30
2018-08-19T13:19:52.622Z,33.50
2018-08-19T13:22:21.326Z,32.80
2018-08-19T13:24:50.006Z,32.00
2018-08-19T13:27:18.679Z,31.70
2018-08-19T13:29:47.337Z,31.40
2018-08-19T13:32:15.998Z,31.10
2018-08-19T13:34:44.650Z,30.90
2018-08-19T13:37:13.337Z,30.60
2018-08-19T13:39:42.112Z,30.70
2018-08-19T13:42:10.742Z,30.80
2018-08-19T13:44:39.425Z,31.00
2018-08-19T13:47:08.116Z,31.10
2018-08-19T13:49:36.779Z,31.10
2018-08-19T13:52:05.478Z,31.20
2018-08-19T13:54:34.269Z,32.00
2018-08-19T13:57:03.329Z,33.10
2018-08-19T13:59:31.997Z,34.10
2018-08-19T14:02:00.701Z,34.30
2018-08-19T14:04:29.362Z,34.80
2018-08-19T14:06:58.178Z,35.50
2018-08-19T14:09:26.813Z,36.20
2018-08-19T14:11:55.433Z,36.20
2018-08-19T14:14:24.052Z,36.40
2018-08-19T14:16:52.681Z,36.90
2018-08-19T14:19:21.493Z,36.70
2018-08-19T14:21:50.147Z,36.60
2018-08-19T14:24:18.773Z,36.20
2018-08-19T14:26:47.514Z,36.50
2018-08-19T14:29:16.151Z,36.70
2018-08-19T14:31:44.837Z,37.20
2018-08-19T14:34:13.488Z,37.70
2018-08-19T14:36:42.306Z,38.10
2018-08-19T14:39:10.938Z,38.20
2018-08-19T14:41:39.622Z,38.30
2018-08-19T14:44:08.389Z,38.20
2018-08-19T14:46:37.097Z,37.90
2018-08-19T14:49:06.896Z,37.10
2018-08-19T14:51:57.665Z,37.00
2018-08-19T14:54:26.423Z,36.70
2018-08-19T14:56:55.082Z,36.90
2018-08-19T14:59:23.719Z,36.50
2018-08-19T15:01:52.408Z,35.80
2018-08-19T15:04:21.089Z,35.90
2018-08-19T15:06:49.847Z,36.10
2018-08-19T15:09:24.809Z,36.30
2018-08-19T15:11:54.105Z,36.80
2018-08-19T15:14:22.908Z,37.20
2018-08-19T15:16:52.745Z,36.70
2018-08-19T15:19:21.398Z,36.20
2018-08-19T15:21:54.074Z,36.00
2018-08-19T15:24:22.912Z,35.90
2018-08-19T15:26:51.581Z,36.00
2018-08-19T15:29:29.190Z,36.60
2018-08-19T15:31:59.107Z,36.70
2018-08-19T15:34:27.685Z,36.70
2018-08-19T15:36:56.338Z,37.40
2018-08-19T15:39:25.058Z,37.90
2018-08-19T15:41:53.724Z,37.50
2018-08-19T15:44:22.357Z,37.10
2018-08-19T15:46:51.087Z,37.00
2018-08-19T15:49:22.843Z,36.90
2018-08-19T15:51:51.820Z,37.00
2018-08-19T15:54:20.594Z,37.00
2018-08-19T15:56:49.249Z,36.60
2018-08-19T15:59:17.941Z,35.30
2018-08-19T16:01:46.672Z,34.90
2018-08-19T16:04:20.319Z,34.90
2018-08-19T16:06:50.512Z,35.30
2018-08-19T16:09:20.751Z,35.00
2018-08-19T16:11:50.229Z,34.90
2018-08-19T16:14:24.592Z,34.70
2018-08-19T16:16:54.218Z,35.50
2018-08-19T16:19:23.097Z,35.80
2018-08-19T16:21:53.054Z,36.10
2018-08-19T16:24:21.809Z,36.00
2018-08-19T16:26:50.460Z,35.80
2018-08-19T16:29:19.148Z,36.10
2018-08-19T16:31:47.929Z,36.20
2018-08-19T16:34:23.053Z,36.10
2018-08-19T16:36:51.909Z,35.60
2018-08-19T16:39:20.669Z,35.90
2018-08-19T16:41:49.313Z,36.00
2018-08-19T16:44:17.986Z,35.80
2018-08-19T16:46:46.666Z,35.40
2018-08-19T16:49:15.341Z,35.10
2018-08-19T16:51:43.957Z,34.50
2018-08-19T16:54:12.608Z,34.40
2018-08-19T16:56:41.245Z,34.50
2018-08-19T16:59:10.493Z,34.40
2018-08-19T17:01:39.193Z,34.50
2018-08-19T17:04:07.816Z,34.40
2018-08-19T17:06:38.016Z,34.30
2018-08-19T17:09:08.269Z,34.50
2018-08-19T17:11:36.921Z,34.60
2018-08-19T17:14:05.619Z,33.90
2018-08-19T17:16:34.304Z,33.70
2018-08-19T17:19:03.445Z,33.80
2018-08-19T17:21:32.293Z,33.20
2018-08-19T17:24:01.540Z,32.70
2018-08-19T17:26:30.513Z,32.20
2018-08-19T17:29:04.886Z,31.70
2018-08-19T17:31:33.865Z,31.20
2018-08-19T17:34:06.998Z,30.70
2018-08-19T17:36:35.667Z,30.30
2018-08-19T17:39:05.447Z,30.10
2018-08-19T17:41:34.077Z,29.90
2018-08-19T17:44:03.670Z,29.60
2018-08-19T17:46:32.318Z,29.40
2018-08-19T17:49:01.126Z,29.20
2018-08-19T17:51:34.433Z,29.00
2018-08-19T17:54:03.221Z,28.90
2018-08-19T17:56:31.874Z,28.80
2018-08-19T17:59:00.597Z,28.60
2018-08-19T18:01:29.285Z,28.50
2018-08-19T18:03:57.930Z,28.50
2018-08-19T18:06:26.645Z,28.30
2018-08-19T18:08:55.286Z,28.20
2018-08-19T18:11:23.949Z,28.10
2018-08-19T18:13:52.584Z,28.00
2018-08-19T18:16:21.275Z,27.90
2018-08-19T18:18:49.902Z,27.80
2018-08-19T18:21:18.589Z,27.70
2018-08-19T18:23:48.793Z,27.60
2018-08-19T18:26:17.508Z,27.60
2018-08-19T18:28:47.984Z,27.50
2018-08-19T18:31:21.952Z,27.40
2018-08-19T18:33:56.015Z,27.20
2018-08-19T18:36:25.793Z,27.20
2018-08-19T18:38:54.504Z,27.10
2018-08-19T18:41:28.485Z,26.90
2018-08-19T18:43:59.270Z,26.90
2018-08-19T18:46:28.232Z,26.70
2018-08-19T18:49:02.923Z,26.60
2018-08-19T18:51:32.876Z,26.60
2018-08-19T18:54:01.589Z,26.40
2018-08-19T18:56:30.620Z,26.20
2018-08-19T18:58:59.324Z,26.10
2018-08-19T19:01:28.260Z,26.00
2018-08-19T19:03:56.901Z,26.00
2018-08-19T19:06:25.585Z,25.90
2018-08-19T19:08:54.225Z,25.80
2018-08-19T19:11:23.984Z,25.70
2018-08-19T19:13:52.647Z,25.60
2018-08-19T19:16:27.794Z,25.50
2018-08-19T19:18:56.491Z,25.40
2018-08-19T19:21:25.166Z,25.30
2018-08-19T19:23:53.780Z,25.20
2018-08-19T19:26:29.102Z,25.10
2018-08-19T19:28:57.715Z,25.00
2018-08-19T19:31:26.358Z,25.00
2018-08-19T19:34:06.973Z,24.90
2018-08-19T19:36:35.604Z,24.80
2018-08-19T19:39:16.389Z,24.70
2018-08-19T19:42:21.694Z,24.70
2018-08-19T19:45:01.744Z,24.60
2018-08-19T19:47:31.070Z,24.50
2018-08-19T19:50:00.096Z,24.50
2018-08-19T19:52:29.158Z,24.40
2018-08-19T19:54:58.040Z,24.40
2018-08-19T19:57:26.768Z,24.30
2018-08-19T19:59:55.385Z,24.20
2018-08-19T20:02:29.610Z,24.20
2018-08-19T20:04:58.650Z,24.20
2018-08-19T20:07:27.896Z,24.20
2018-08-19T20:09:56.613Z,24.10
2018-08-19T20:12:29.491Z,24.10
2018-08-19T20:15:00.580Z,24.00
2018-08-19T20:17:29.420Z,24.10
2018-08-19T20:19:58.073Z,24.10
2018-08-19T20:22:26.688Z,24.10
2018-08-19T20:24:55.341Z,24.10
2018-08-19T20:27:23.972Z,24.10
2018-08-19T20:29:54.190Z,24.10
2018-08-19T20:32:23.275Z,24.10
2018-08-19T20:34:52.288Z,24.00
2018-08-19T20:37:23.879Z,24.00
2018-08-19T20:39:53.097Z,23.90
2018-08-19T20:42:21.969Z,23.90
2018-08-19T20:44:50.710Z,23.90
2018-08-19T20:47:19.394Z,23.80
2018-08-19T20:49:49.622Z,23.80
2018-08-19T20:52:19.448Z,23.80
2018-08-19T20:54:48.121Z,23.80
2018-08-19T20:57:16.733Z,23.70
2018-08-19T20:59:45.353Z,23.60
2018-08-19T21:02:14.045Z,23.60
2018-08-19T21:04:42.650Z,23.60
2018-08-19T21:07:11.338Z,23.60
2018-08-19T21:09:39.961Z,23.60
2018-08-19T21:12:08.594Z,23.60
2018-08-19T21:14:37.228Z,23.70
2018-08-19T21:17:06.600Z,23.60
2018-08-19T21:19:35.811Z,23.60
2018-08-19T21:22:04.465Z,23.60
2018-08-19T21:24:33.080Z,23.50
2018-08-19T21:27:02.565Z,23.50
2018-08-19T21:29:31.925Z,23.50
2018-08-19T21:32:00.634Z,23.40
2018-08-19T21:34:30.446Z,23.40
2018-08-19T21:37:00.155Z,23.30
2018-08-19T21:39:28.878Z,23.30
2018-08-19T21:41:57.566Z,23.20
2018-08-19T21:44:26.223Z,23.20
2018-08-19T21:46:54.851Z,23.10
2018-08-19T21:49:23.592Z,23.10
2018-08-19T21:51:52.274Z,23.10
2018-08-19T21:54:20.970Z,23.10
2018-08-19T21:56:49.632Z,23.00
2018-08-19T21:59:24.146Z,23.00
2018-08-19T22:01:55.958Z,23.00
2018-08-19T22:04:24.626Z,23.00
2018-08-19T22:06:53.326Z,22.90
2018-08-19T22:09:28.306Z,22.80
2018-08-19T22:11:58.341Z,22.60
2018-08-19T22:14:26.959Z,22.50
2018-08-19T22:17:01.292Z,22.40
2018-08-19T22:19:30.043Z,22.30
2018-08-19T22:21:58.753Z,22.20
2018-08-19T22:24:27.537Z,22.10
2018-08-19T22:27:03.699Z,22.00
2018-08-19T22:29:32.360Z,21.80
2018-08-19T22:32:01.093Z,21.80
2018-08-19T22:34:29.789Z,21.70
2018-08-19T22:36:58.473Z,21.60
2018-08-19T22:39:27.160Z,21.50
2018-08-19T22:41:55.793Z,21.40
2018-08-19T22:44:24.392Z,21.30
2018-08-19T22:46:53.046Z,21.20
2018-08-19T22:49:21.669Z,21.20
2018-08-19T22:51:50.313Z,21.10
2018-08-19T22:54:19.441Z,21.00
2018-08-19T22:56:48.109Z,21.00
2018-08-19T22:59:16.750Z,20.90
2018-08-19T23:01:48.880Z,20.90
2018-08-19T23:04:17.499Z,20.80
2018-08-19T23:06:46.112Z,20.70
2018-08-19T23:09:14.796Z,20.60
2018-08-19T23:11:46.378Z,20.60
2018-08-19T23:14:25.949Z,20.50
2018-08-19T23:16:54.706Z,20.40
2018-08-19T23:19:23.357Z,20.40
2018-08-19T23:21:52.122Z,20.30
2018-08-19T23:24:20.740Z,20.30
2018-08-19T23:26:49.584Z,20.30
2018-08-19T23:29:18.276Z,20.20
2018-08-19T23:31:46.925Z,20.20
2018-08-19T23:34:15.527Z,20.10
2018-08-19T23:36:44.181Z,20.10
2018-08-19T23:39:12.777Z,20.00
2018-08-19T23:41:41.410Z,20.00
2018-08-19T23:44:10.117Z,19.90
2018-08-19T23:46:38.832Z,19.80
2018-08-19T23:49:07.526Z,19.80
2018-08-19T23:51:36.129Z,19.80
2018-08-19T23:54:05.032Z,19.70
2018-08-19T23:56:33.703Z,19.70
2018-08-19T23:59:02.857Z,19.60
